Time;durP1;ratioP1;P1;durP2;ratioP2;P2;SDS_P1;SDS_P2;PMS_P1;PMS_P2;Temp;Humidity;BMP_temperature;BMP_pressure;BME280_temperature;BME280_humidity;BME280_pressure;Samples;Min_cycle;Max_cycle;Signal;HPM_P1;HPM_P2
2022/03/27 00:00:46;;;;;;;;;;;10.90;62.00;;;;;;4938058;28;19933;-78
2022/03/27 00:03:14;;;;;;;;;;;10.90;62.00;;;;;;4946502;28;20014;-76
2022/03/27 00:05:41;;;;;;;;;;;10.90;62.00;;;;;;4941705;28;19927;-76
2022/03/27 00:08:09;;;;;;;;;;;10.80;61.90;;;;;;4940882;28;19931;-76
2022/03/27 00:13:17;;;;;;;;;;;10.80;62.00;;;;;;4944494;28;19922;-76
2022/03/27 00:15:44;;;;;;;;;;;10.80;62.00;;;;;;4938382;28;19937;-76
2022/03/27 00:18:11;;;;;;;;;;;10.80;62.00;;;;;;4938633;28;20660;-76
2022/03/27 00:20:39;;;;;;;;;;;10.80;62.00;;;;;;4947378;28;19976;-76
2022/03/27 00:23:07;;;;;;;;;;;10.70;62.00;;;;;;4945911;28;19933;-76
2022/03/27 00:25:34;;;;;;;;;;;10.70;62.10;;;;;;4947812;28;20412;-76
2022/03/27 00:28:00;;;;;;;;;;;10.70;62.20;;;;;;4946242;28;19990;-76
2022/03/27 00:30:27;;;;;;;;;;;10.60;62.20;;;;;;4946783;28;19936;-76
2022/03/27 00:32:54;;;;;;;;;;;10.60;62.30;;;;;;4949286;28;19934;-75
2022/03/27 00:35:21;;;;;;;;;;;10.60;62.40;;;;;;4944073;28;20399;-76
2022/03/27 00:37:52;;;;;;;;;;;10.60;62.50;;;;;;4939963;28;20395;-76
2022/03/27 00:40:19;;;;;;;;;;;10.60;62.50;;;;;;4936293;28;19935;-75
2022/03/27 00:42:46;;;;;;;;;;;10.60;62.60;;;;;;4939531;28;20057;-76
2022/03/27 00:45:13;;;;;;;;;;;10.60;62.50;;;;;;4946810;28;19927;-75
2022/03/27 00:47:39;;;;;;;;;;;10.60;62.60;;;;;;4948350;28;20389;-76
2022/03/27 00:50:07;;;;;;;;;;;10.50;62.50;;;;;;4947260;28;19935;-77
2022/03/27 00:52:34;;;;;;;;;;;10.50;62.50;;;;;;4946842;28;19930;-76
2022/03/27 00:55:02;;;;;;;;;;;10.50;62.50;;;;;;4943632;28;20641;-76
2022/03/27 00:57:30;;;;;;;;;;;10.40;62.60;;;;;;4944930;28;20327;-76
2022/03/27 00:59:57;;;;;;;;;;;10.40;62.50;;;;;;4936430;28;19930;-77
2022/03/27 01:02:24;;;;;;;;;;;10.40;62.50;;;;;;4944889;28;19974;-76
2022/03/27 01:04:53;;;;;;;;;;;10.40;62.90;;;;;;4946230;28;20152;-77
2022/03/27 01:07:20;;;;;;;;;;;10.40;62.70;;;;;;4946909;28;19930;-77
2022/03/27 01:09:46;;;;;;;;;;;10.40;62.60;;;;;;4936810;28;19926;-77
2022/03/27 01:12:17;;;;;;;;;;;10.30;62.60;;;;;;4940812;28;20377;-77
2022/03/27 01:14:44;;;;;;;;;;;10.30;62.70;;;;;;4939893;28;19926;-77
2022/03/27 01:17:15;;;;;;;;;;;10.30;62.80;;;;;;4949158;28;19926;-76
2022/03/27 01:19:43;;;;;;;;;;;10.30;62.90;;;;;;4945430;28;19935;-77
2022/03/27 01:22:12;;;;;;;;;;;10.20;62.80;;;;;;4944692;28;21231;-77
2022/03/27 01:24:39;;;;;;;;;;;10.20;62.90;;;;;;4945816;28;19933;-77
2022/03/27 01:27:06;;;;;;;;;;;10.20;62.80;;;;;;4943814;28;19938;-77
2022/03/27 01:29:34;;;;;;;;;;;10.20;62.80;;;;;;4945154;28;20017;-76
2022/03/27 01:32:01;;;;;;;;;;;10.20;62.90;;;;;;4951113;28;19930;-77
2022/03/27 01:34:27;;;;;;;;;;;10.20;63.00;;;;;;4949466;28;19961;-76
2022/03/27 01:36:54;;;;;;;;;;;10.10;62.90;;;;;;4940105;28;19931;-77
2022/03/27 01:39:23;;;;;;;;;;;10.10;63.20;;;;;;4945215;28;19927;-76
2022/03/27 01:41:50;;;;;;;;;;;10.10;63.10;;;;;;4945026;28;20719;-76
2022/03/27 01:44:17;;;;;;;;;;;10.10;63.70;;;;;;4948737;28;20390;-76
2022/03/27 01:46:44;;;;;;;;;;;10.10;63.20;;;;;;4938420;28;20451;-77
2022/03/27 01:49:12;;;;;;;;;;;10.10;63.30;;;;;;4939116;28;19927;-76
2022/03/27 01:51:39;;;;;;;;;;;10.00;63.20;;;;;;4957963;28;19930;-76
2022/03/27 01:54:07;;;;;;;;;;;10.00;63.30;;;;;;4945313;28;19953;-76
2022/03/27 01:56:37;;;;;;;;;;;10.00;63.30;;;;;;4945186;28;20395;-76
2022/03/27 01:59:05;;;;;;;;;;;10.00;63.30;;;;;;4941535;28;19934;-76
2022/03/27 02:01:32;;;;;;;;;;;10.00;63.40;;;;;;4939568;28;19997;-76
2022/03/27 02:04:00;;;;;;;;;;;9.90;64.40;;;;;;4946999;28;19927;-76
2022/03/27 02:06:26;;;;;;;;;;;10.00;63.50;;;;;;4949603;28;20871;-75
2022/03/27 02:08:53;;;;;;;;;;;9.90;64.50;;;;;;4944887;28;19957;-76
2022/03/27 02:11:21;;;;;;;;;;;9.90;64.60;;;;;;4952271;28;19933;-75
2022/03/27 02:13:50;;;;;;;;;;;9.90;64.70;;;;;;4938907;28;20381;-76
2022/03/27 02:16:17;;;;;;;;;;;9.80;64.70;;;;;;4945548;28;20013;-76
2022/03/27 02:18:44;;;;;;;;;;;9.80;64.70;;;;;;4947583;28;19933;-77
2022/03/27 02:21:11;;;;;;;;;;;9.80;64.80;;;;;;4942719;28;20027;-76
2022/03/27 02:23:38;;;;;;;;;;;9.80;64.80;;;;;;4940416;28;20025;-76
2022/03/27 02:26:06;;;;;;;;;;;9.80;64.90;;;;;;4947694;28;19934;-76
2022/03/27 02:28:33;;;;;;;;;;;9.80;65.50;;;;;;4944974;28;20304;-76
2022/03/27 02:31:01;;;;;;;;;;;9.70;64.90;;;;;;4946030;28;19970;-76
2022/03/27 02:33:29;;;;;;;;;;;9.70;64.90;;;;;;4943567;28;19970;-76
2022/03/27 02:35:55;;;;;;;;;;;9.70;64.90;;;;;;4944024;28;19941;-76
2022/03/27 02:38:23;;;;;;;;;;;9.70;65.00;;;;;;4938796;28;19935;-76
2022/03/27 02:40:50;;;;;;;;;;;9.70;65.00;;;;;;4949880;28;19933;-76
2022/03/27 02:43:17;;;;;;;;;;;9.70;65.00;;;;;;4940530;28;19973;-76
2022/03/27 02:45:44;;;;;;;;;;;9.70;65.10;;;;;;4942033;28;20038;-76
2022/03/27 02:48:12;;;;;;;;;;;9.60;65.10;;;;;;4944198;28;19926;-76
2022/03/27 02:50:43;;;;;;;;;;;9.70;65.20;;;;;;4942262;28;20401;-78
2022/03/27 02:53:10;;;;;;;;;;;9.60;65.10;;;;;;4947717;28;19989;-76
2022/03/27 02:55:37;;;;;;;;;;;9.60;65.10;;;;;;4950630;28;19984;-76
2022/03/27 02:58:04;;;;;;;;;;;9.60;65.20;;;;;;4946747;28;19927;-76
2022/03/27 03:00:31;;;;;;;;;;;9.60;65.20;;;;;;4940589;28;21293;-76
2022/03/27 03:02:58;;;;;;;;;;;9.60;65.20;;;;;;4950508;28;19947;-77
2022/03/27 03:05:26;;;;;;;;;;;9.50;65.30;;;;;;4943552;28;19938;-75
2022/03/27 03:07:53;;;;;;;;;;;9.50;65.30;;;;;;4947581;28;19930;-76
2022/03/27 03:10:20;;;;;;;;;;;9.50;65.30;;;;;;4944036;28;19927;-75
2022/03/27 03:12:47;;;;;;;;;;;9.50;65.30;;;;;;4947191;28;19990;-75
2022/03/27 03:15:14;;;;;;;;;;;9.50;65.40;;;;;;4946952;28;19994;-75
2022/03/27 03:17:41;;;;;;;;;;;9.40;65.30;;;;;;4949393;28;20389;-76
2022/03/27 03:20:09;;;;;;;;;;;9.40;65.40;;;;;;4944165;28;20411;-76
2022/03/27 03:22:40;;;;;;;;;;;9.40;65.40;;;;;;4949110;28;19949;-76
2022/03/27 03:25:07;;;;;;;;;;;9.40;65.40;;;;;;4947490;28;19930;-75
2022/03/27 03:27:34;;;;;;;;;;;9.40;65.50;;;;;;4943611;28;20400;-75
2022/03/27 03:30:01;;;;;;;;;;;9.30;65.50;;;;;;4937335;28;19953;-76
2022/03/27 03:32:28;;;;;;;;;;;9.40;65.70;;;;;;4944061;28;19926;-76
2022/03/27 03:34:55;;;;;;;;;;;9.30;65.50;;;;;;4942343;28;19926;-75
2022/03/27 03:37:23;;;;;;;;;;;9.30;65.60;;;;;;4939779;28;19927;-75
2022/03/27 03:39:51;;;;;;;;;;;9.30;66.30;;;;;;4942581;28;19926;-75
2022/03/27 03:42:18;;;;;;;;;;;9.30;65.70;;;;;;4949054;28;19926;-76
2022/03/27 03:44:45;;;;;;;;;;;9.20;65.70;;;;;;4942589;28;20321;-76
2022/03/27 03:47:12;;;;;;;;;;;9.20;65.80;;;;;;4943858;28;19926;-76
2022/03/27 03:49:39;;;;;;;;;;;9.20;65.80;;;;;;4939058;28;19937;-76
2022/03/27 03:52:07;;;;;;;;;;;9.20;65.90;;;;;;4940218;28;19926;-76
2022/03/27 03:54:34;;;;;;;;;;;9.20;65.90;;;;;;4954662;28;20017;-76
2022/03/27 03:57:02;;;;;;;;;;;9.10;65.80;;;;;;4946870;28;19938;-75
2022/03/27 03:59:31;;;;;;;;;;;9.10;65.90;;;;;;4944928;28;19935;-76
2022/03/27 04:01:58;;;;;;;;;;;9.10;65.90;;;;;;4936616;28;19927;-75
2022/03/27 04:04:25;;;;;;;;;;;9.10;65.90;;;;;;4944144;28;19933;-75
2022/03/27 04:06:52;;;;;;;;;;;9.10;66.00;;;;;;4943871;28;19927;-75
2022/03/27 04:09:20;;;;;;;;;;;9.10;65.90;;;;;;4939591;28;20353;-75
2022/03/27 04:11:47;;;;;;;;;;;9.00;66.00;;;;;;4942848;28;20315;-75
2022/03/27 04:14:15;;;;;;;;;;;9.10;66.10;;;;;;4942033;28;20313;-75
2022/03/27 04:16:42;;;;;;;;;;;9.00;66.00;;;;;;4942016;28;19934;-75
2022/03/27 04:19:09;;;;;;;;;;;9.00;66.10;;;;;;4940453;28;19937;-75
2022/03/27 04:21:36;;;;;;;;;;;9.00;66.10;;;;;;4941019;28;19926;-75
2022/03/27 04:24:03;;;;;;;;;;;8.90;66.10;;;;;;4960406;28;20001;-76
2022/03/27 04:26:30;;;;;;;;;;;8.90;66.20;;;;;;4943307;28;19933;-76
2022/03/27 04:28:57;;;;;;;;;;;8.90;66.20;;;;;;4941018;28;20026;-76
2022/03/27 04:31:25;;;;;;;;;;;8.90;66.20;;;;;;4945508;28;19926;-76
2022/03/27 04:33:52;;;;;;;;;;;8.80;66.20;;;;;;4942785;28;19935;-75
2022/03/27 04:36:19;;;;;;;;;;;8.90;66.30;;;;;;4942852;28;20050;-75
2022/03/27 04:38:46;;;;;;;;;;;8.80;66.20;;;;;;4936527;28;19932;-74
2022/03/27 04:41:13;;;;;;;;;;;8.80;66.30;;;;;;4943034;28;20389;-75
2022/03/27 04:43:40;;;;;;;;;;;8.80;66.30;;;;;;4944231;28;20283;-75
2022/03/27 04:46:07;;;;;;;;;;;8.80;66.30;;;;;;4949505;28;19934;-75
2022/03/27 04:48:36;;;;;;;;;;;8.80;66.40;;;;;;4944825;28;19935;-76
2022/03/27 04:51:02;;;;;;;;;;;8.80;66.40;;;;;;4958290;28;21490;-75
2022/03/27 04:53:29;;;;;;;;;;;8.70;66.40;;;;;;4946824;28;20366;-75
2022/03/27 04:55:56;;;;;;;;;;;8.70;66.40;;;;;;4956046;28;20621;-74
2022/03/27 04:58:24;;;;;;;;;;;8.70;66.50;;;;;;4946004;28;19933;-76
2022/03/27 05:00:51;;;;;;;;;;;8.70;66.50;;;;;;4941894;28;20366;-74
2022/03/27 05:03:17;;;;;;;;;;;8.70;66.50;;;;;;4942685;28;19993;-75
2022/03/27 05:05:46;;;;;;;;;;;8.60;66.40;;;;;;4942582;28;19946;-75
2022/03/27 05:08:13;;;;;;;;;;;8.60;66.50;;;;;;4941914;28;19946;-76
2022/03/27 05:10:39;;;;;;;;;;;8.60;66.50;;;;;;4941153;28;20404;-74
2022/03/27 05:13:07;;;;;;;;;;;8.60;66.50;;;;;;4946901;28;20396;-75
2022/03/27 05:15:33;;;;;;;;;;;8.60;66.60;;;;;;4942328;28;20014;-75
2022/03/27 05:18:01;;;;;;;;;;;8.60;66.60;;;;;;4938406;28;20018;-75
2022/03/27 05:20:29;;;;;;;;;;;8.60;66.60;;;;;;4942945;28;20388;-75
2022/03/27 05:22:59;;;;;;;;;;;8.60;66.60;;;;;;4941786;28;19978;-75
2022/03/27 05:25:26;;;;;;;;;;;8.60;66.70;;;;;;4943050;28;19956;-75
2022/03/27 05:27:54;;;;;;;;;;;8.50;66.50;;;;;;4936956;28;20314;-75
2022/03/27 05:30:22;;;;;;;;;;;8.50;66.50;;;;;;4935641;28;19957;-75
2022/03/27 05:32:49;;;;;;;;;;;8.50;66.60;;;;;;4939899;28;20003;-75
2022/03/27 05:35:17;;;;;;;;;;;8.50;66.50;;;;;;4948577;28;20021;-75
2022/03/27 05:37:44;;;;;;;;;;;8.40;66.50;;;;;;4943142;28;20031;-75
2022/03/27 05:40:13;;;;;;;;;;;8.40;66.50;;;;;;4947388;28;19945;-74
2022/03/27 05:42:40;;;;;;;;;;;8.40;66.50;;;;;;4942952;28;20009;-74
2022/03/27 05:45:08;;;;;;;;;;;8.40;66.70;;;;;;4939381;28;19927;-75
2022/03/27 05:47:35;;;;;;;;;;;8.40;66.60;;;;;;4938878;28;19926;-75
2022/03/27 05:50:02;;;;;;;;;;;8.40;66.60;;;;;;4936637;28;19969;-75
2022/03/27 05:52:28;;;;;;;;;;;8.30;66.60;;;;;;4956874;28;20104;-75
2022/03/27 05:54:57;;;;;;;;;;;8.30;66.60;;;;;;4949543;28;20755;-75
2022/03/27 05:57:25;;;;;;;;;;;8.40;66.70;;;;;;4955049;28;19927;-75
2022/03/27 05:59:52;;;;;;;;;;;8.30;66.60;;;;;;4942723;28;20385;-75
2022/03/27 06:02:18;;;;;;;;;;;8.30;66.60;;;;;;4938519;28;20376;-74
2022/03/27 06:04:45;;;;;;;;;;;8.30;66.60;;;;;;4939236;28;19927;-74
2022/03/27 06:07:12;;;;;;;;;;;8.30;66.70;;;;;;4943654;28;19940;-74
2022/03/27 06:09:39;;;;;;;;;;;8.20;66.60;;;;;;4941131;28;19973;-75
2022/03/27 06:12:06;;;;;;;;;;;8.20;66.70;;;;;;4939169;28;19935;-75
2022/03/27 06:14:35;;;;;;;;;;;8.20;66.70;;;;;;4941458;28;19977;-75
2022/03/27 06:17:02;;;;;;;;;;;8.20;66.70;;;;;;4939843;28;19977;-75
2022/03/27 06:19:30;;;;;;;;;;;8.20;66.80;;;;;;4946478;28;19957;-74
2022/03/27 06:21:57;;;;;;;;;;;8.20;66.80;;;;;;4946347;28;19942;-75
2022/03/27 06:24:24;;;;;;;;;;;8.20;66.90;;;;;;4948104;28;19961;-74
2022/03/27 06:26:51;;;;;;;;;;;8.10;66.90;;;;;;4941721;28;19940;-75
2022/03/27 06:29:18;;;;;;;;;;;8.10;67.00;;;;;;4942174;28;19927;-75
2022/03/27 06:31:48;;;;;;;;;;;8.10;67.00;;;;;;4937286;28;19927;-75
2022/03/27 06:34:14;;;;;;;;;;;8.10;67.00;;;;;;4944622;28;19934;-75
2022/03/27 06:36:42;;;;;;;;;;;8.10;67.10;;;;;;4941660;28;19934;-75
2022/03/27 06:39:09;;;;;;;;;;;8.00;67.00;;;;;;4937409;28;19934;-75
2022/03/27 06:41:36;;;;;;;;;;;8.00;67.10;;;;;;4948950;28;19927;-75
2022/03/27 06:44:03;;;;;;;;;;;8.00;67.10;;;;;;4941866;28;19950;-75
2022/03/27 06:46:31;;;;;;;;;;;8.00;67.20;;;;;;4932812;28;19930;-75
2022/03/27 06:48:59;;;;;;;;;;;8.00;67.30;;;;;;4945171;28;19938;-74
2022/03/27 06:51:26;;;;;;;;;;;8.00;67.50;;;;;;4945533;28;20395;-75
2022/03/27 06:53:53;;;;;;;;;;;7.90;67.90;;;;;;4939429;28;19930;-74
2022/03/27 06:56:20;;;;;;;;;;;7.80;67.70;;;;;;4949918;28;19935;-75
2022/03/27 06:58:46;;;;;;;;;;;7.80;68.20;;;;;;4942351;28;19930;-75
2022/03/27 07:03:59;;;;;;;;;;;7.70;69.10;;;;;;4943131;28;19931;-74
2022/03/27 07:06:26;;;;;;;;;;;7.70;69.40;;;;;;4944768;28;19935;-74
2022/03/27 07:08:53;;;;;;;;;;;7.60;70.00;;;;;;4945458;28;19938;-74
2022/03/27 07:11:19;;;;;;;;;;;7.60;70.40;;;;;;4942243;28;20033;-74
2022/03/27 07:13:46;;;;;;;;;;;7.70;71.00;;;;;;4946202;28;20385;-74
2022/03/27 07:16:14;;;;;;;;;;;7.70;71.70;;;;;;4948457;28;19934;-74
2022/03/27 07:18:40;;;;;;;;;;;7.70;71.50;;;;;;4962146;28;20030;-74
2022/03/27 07:21:09;;;;;;;;;;;7.70;71.30;;;;;;4944699;28;20007;-74
2022/03/27 07:23:36;;;;;;;;;;;7.60;71.60;;;;;;4948865;28;19927;-74
2022/03/27 07:26:03;;;;;;;;;;;7.60;72.10;;;;;;4955059;28;19934;-74
2022/03/27 07:28:31;;;;;;;;;;;7.70;72.40;;;;;;4948651;28;20025;-74
2022/03/27 07:30:59;;;;;;;;;;;7.70;72.80;;;;;;4939411;28;19941;-75
2022/03/27 07:33:27;;;;;;;;;;;7.70;73.20;;;;;;4939632;28;20021;-74
2022/03/27 07:35:54;;;;;;;;;;;7.70;75.20;;;;;;4943998;28;19927;-74
2022/03/27 07:38:23;;;;;;;;;;;7.90;76.70;;;;;;4944439;28;19926;-74
2022/03/27 07:40:50;;;;;;;;;;;8.00;77.40;;;;;;4940676;28;19948;-74
2022/03/27 07:43:16;;;;;;;;;;;8.10;77.50;;;;;;4948515;28;19926;-75
2022/03/27 07:45:43;;;;;;;;;;;8.20;77.50;;;;;;4938350;28;19974;-74
2022/03/27 07:48:10;;;;;;;;;;;8.20;77.50;;;;;;4940525;28;19989;-74
2022/03/27 07:50:37;;;;;;;;;;;8.40;77.80;;;;;;4945873;28;20385;-75
2022/03/27 07:53:05;;;;;;;;;;;8.40;76.90;;;;;;4943193;28;19953;-74
2022/03/27 07:55:33;;;;;;;;;;;8.50;77.20;;;;;;4945284;28;19927;-74
2022/03/27 07:58:01;;;;;;;;;;;8.50;76.40;;;;;;4939739;28;19958;-75
2022/03/27 08:00:28;;;;;;;;;;;8.50;76.60;;;;;;4938317;28;19937;-74
2022/03/27 08:02:55;;;;;;;;;;;8.60;77.10;;;;;;4944163;28;20407;-75
2022/03/27 08:05:22;;;;;;;;;;;8.70;76.10;;;;;;4930730;28;20452;-73
2022/03/27 08:07:49;;;;;;;;;;;8.60;75.50;;;;;;4935455;28;19931;-74
2022/03/27 08:10:16;;;;;;;;;;;8.40;75.30;;;;;;4935086;28;19926;-75
2022/03/27 08:12:46;;;;;;;;;;;8.30;75.20;;;;;;4932341;28;19941;-74
2022/03/27 08:15:13;;;;;;;;;;;8.30;75.30;;;;;;4944823;28;19930;-74
2022/03/27 08:17:40;;;;;;;;;;;8.30;75.40;;;;;;4947173;28;19934;-75
2022/03/27 08:20:08;;;;;;;;;;;8.30;75.30;;;;;;4947508;28;19926;-74
2022/03/27 08:22:35;;;;;;;;;;;8.20;75.00;;;;;;4939172;28;19934;-76
2022/03/27 08:25:02;;;;;;;;;;;8.30;75.10;;;;;;4933866;28;19930;-75
2022/03/27 08:27:30;;;;;;;;;;;8.30;74.90;;;;;;4938562;28;19934;-74
2022/03/27 08:29:59;;;;;;;;;;;8.30;74.80;;;;;;4932394;28;20290;-75
2022/03/27 08:32:26;;;;;;;;;;;8.30;74.90;;;;;;4932267;28;20704;-75
2022/03/27 08:34:52;;;;;;;;;;;8.30;74.90;;;;;;4935241;28;20333;-75
2022/03/27 08:37:19;;;;;;;;;;;8.30;74.70;;;;;;4933735;28;19931;-75
2022/03/27 08:39:46;;;;;;;;;;;8.30;74.80;;;;;;4936576;28;19974;-75
2022/03/27 08:42:14;;;;;;;;;;;8.40;74.90;;;;;;4946333;28;19934;-76
2022/03/27 08:44:41;;;;;;;;;;;8.40;74.90;;;;;;4945717;28;21816;-75
2022/03/27 08:47:14;;;;;;;;;;;8.40;75.00;;;;;;4944132;28;20357;-75
2022/03/27 08:49:42;;;;;;;;;;;8.40;75.00;;;;;;4941034;28;19927;-75
2022/03/27 08:52:29;;;;;;;;;;;8.40;75.00;;;;;;4947280;28;20329;-76
2022/03/27 08:54:59;;;;;;;;;;;8.40;74.90;;;;;;4948179;28;19941;-75
2022/03/27 08:57:33;;;;;;;;;;;8.40;74.90;;;;;;4940179;28;19934;-76
2022/03/27 09:00:00;;;;;;;;;;;8.40;74.80;;;;;;4941982;28;19973;-75
2022/03/27 09:02:29;;;;;;;;;;;8.60;75.50;;;;;;4942085;28;19927;-77
2022/03/27 09:04:57;;;;;;;;;;;8.60;74.90;;;;;;4941348;28;20021;-76
2022/03/27 09:07:24;;;;;;;;;;;8.80;75.20;;;;;;4947076;28;19926;-76
2022/03/27 09:09:51;;;;;;;;;;;9.40;74.10;;;;;;4947147;28;19969;-75
2022/03/27 09:12:19;;;;;;;;;;;9.40;73.80;;;;;;4946151;28;19941;-76
2022/03/27 09:14:46;;;;;;;;;;;9.70;74.00;;;;;;4942062;28;19934;-76
2022/03/27 09:17:13;;;;;;;;;;;9.60;73.00;;;;;;4942742;28;19938;-76
2022/03/27 09:19:43;;;;;;;;;;;9.50;72.90;;;;;;4939540;28;20940;-75
2022/03/27 09:22:14;;;;;;;;;;;9.70;72.50;;;;;;5042983;23;19945;-76
2022/03/27 09:24:42;;;;;;;;;;;9.60;72.50;;;;;;5007501;28;20501;-77
2022/03/27 09:27:09;;;;;;;;;;;9.80;72.20;;;;;;4988732;28;19940;-76
2022/03/27 09:29:57;;;;;;;;;;;9.80;72.50;;;;;;4991910;28;19933;-76
2022/03/27 09:32:28;;;;;;;;;;;9.60;72.80;;;;;;4997099;28;19947;-75
2022/03/27 09:35:00;;;;;;;;;;;9.40;73.10;;;;;;4994394;28;20020;-76
2022/03/27 09:37:31;;;;;;;;;;;9.30;73.30;;;;;;4995140;28;19980;-77
2022/03/27 09:39:58;;;;;;;;;;;9.30;73.50;;;;;;4991095;28;19926;-76
2022/03/27 09:42:25;;;;;;;;;;;9.30;73.50;;;;;;4988421;28;20379;-76
2022/03/27 09:45:07;;;;;;;;;;;9.30;73.50;;;;;;4997143;28;19933;-76
2022/03/27 09:47:34;;;;;;;;;;;9.30;73.50;;;;;;4993541;28;19995;-77
2022/03/27 09:50:02;;;;;;;;;;;9.30;73.50;;;;;;4990182;28;20475;-76
2022/03/27 09:52:30;;;;;;;;;;;9.30;73.40;;;;;;4996017;28;20032;-77
2022/03/27 09:54:57;;;;;;;;;;;9.30;73.60;;;;;;4990625;28;20009;-77
2022/03/27 09:57:25;;;;;;;;;;;9.40;73.80;;;;;;4972301;28;19929;-76
2022/03/27 09:59:52;;;;;;;;;;;9.30;73.60;;;;;;4989826;28;19938;-77
2022/03/27 10:02:20;;;;;;;;;;;9.40;73.60;;;;;;4979097;28;19937;-76
2022/03/27 10:04:54;;;;;;;;;;;9.40;73.70;;;;;;4980178;28;20392;-76
2022/03/27 10:07:24;;;;;;;;;;;9.40;73.70;;;;;;4986944;28;19977;-76
2022/03/27 10:09:52;;;;;;;;;;;9.40;73.50;;;;;;4970798;28;19930;-75
2022/03/27 10:12:19;;;;;;;;;;;9.40;73.50;;;;;;4990340;28;20013;-77
2022/03/27 10:14:47;;;;;;;;;;;9.50;73.50;;;;;;4987004;28;19930;-76
2022/03/27 10:17:15;;;;;;;;;;;9.60;72.80;;;;;;4971571;28;19925;-76
2022/03/27 10:19:45;;;;;;;;;;;10.00;70.70;;;;;;4988995;28;20400;-76
2022/03/27 10:22:12;;;;;;;;;;;10.50;68.80;;;;;;4985072;28;20369;-77
2022/03/27 10:24:42;;;;;;;;;;;10.70;70.90;;;;;;4984726;28;20012;-78
2022/03/27 10:27:09;;;;;;;;;;;11.00;70.00;;;;;;4986085;28;19926;-78
2022/03/27 10:29:36;;;;;;;;;;;11.30;69.10;;;;;;4984557;28;20396;-77
2022/03/27 10:32:04;;;;;;;;;;;11.50;69.00;;;;;;4982427;28;19937;-77
2022/03/27 10:34:34;;;;;;;;;;;11.90;67.20;;;;;;4987000;28;19980;-77
2022/03/27 10:37:07;;;;;;;;;;;12.20;65.50;;;;;;4990279;28;19980;-77
2022/03/27 10:39:37;;;;;;;;;;;12.30;64.80;;;;;;4986683;28;20020;-77
2022/03/27 10:42:11;;;;;;;;;;;12.30;64.90;;;;;;4984567;28;20277;-77
2022/03/27 10:44:39;;;;;;;;;;;12.40;65.30;;;;;;4990290;28;19956;-77
2022/03/27 10:47:16;;;;;;;;;;;12.50;61.80;;;;;;4984691;28;19984;-78
2022/03/27 10:49:43;;;;;;;;;;;12.70;63.70;;;;;;4982433;28;20044;-77
2022/03/27 10:52:10;;;;;;;;;;;12.60;58.90;;;;;;4976555;28;19932;-78
2022/03/27 10:54:52;;;;;;;;;;;12.80;58.60;;;;;;4986307;28;19944;-77
2022/03/27 10:57:29;;;;;;;;;;;12.70;61.00;;;;;;4985069;28;19940;-77
2022/03/27 10:59:57;;;;;;;;;;;12.80;61.60;;;;;;4986059;28;19959;-78
2022/03/27 11:02:38;;;;;;;;;;;12.90;61.20;;;;;;4969525;28;19941;-78
2022/03/27 11:05:05;;;;;;;;;;;12.80;61.50;;;;;;4991271;28;19925;-78
2022/03/27 11:07:32;;;;;;;;;;;12.50;61.20;;;;;;4965430;28;19926;-78
2022/03/27 11:09:59;;;;;;;;;;;12.10;62.70;;;;;;4970735;28;20344;-76
2022/03/27 11:12:31;;;;;;;;;;;11.80;63.80;;;;;;4977751;28;19934;-76
2022/03/27 11:14:59;;;;;;;;;;;11.70;63.80;;;;;;4981777;28;19925;-76
2022/03/27 11:17:56;;;;;;;;;;;11.50;64.30;;;;;;4968917;28;19926;-77
2022/03/27 11:20:56;;;;;;;;;;;11.50;64.50;;;;;;4971187;28;19969;-77
2022/03/27 11:23:34;;;;;;;;;;;11.50;62.70;;;;;;4985139;28;19941;-77
2022/03/27 11:26:02;;;;;;;;;;;11.90;59.10;;;;;;4993074;28;19925;-77
2022/03/27 11:28:50;;;;;;;;;;;11.90;58.80;;;;;;4989189;28;19972;-77
2022/03/27 11:31:19;;;;;;;;;;;12.20;57.00;;;;;;4987651;28;19925;-77
2022/03/27 11:34:00;;;;;;;;;;;12.30;57.50;;;;;;4981918;28;19937;-78
2022/03/27 11:36:27;;;;;;;;;;;12.30;58.40;;;;;;4983472;28;20402;-76
2022/03/27 11:38:58;;;;;;;;;;;12.40;59.20;;;;;;4962595;28;20269;-76
2022/03/27 11:41:26;;;;;;;;;;;12.60;59.20;;;;;;4978584;28;19929;-77
2022/03/27 11:43:54;;;;;;;;;;;12.50;60.10;;;;;;4984617;28;19932;-77
2022/03/27 11:46:23;;;;;;;;;;;12.30;61.70;;;;;;4985347;28;19934;-77
2022/03/27 11:48:53;;;;;;;;;;;12.00;62.40;;;;;;4992913;28;19925;-76
2022/03/27 11:51:20;;;;;;;;;;;12.00;62.50;;;;;;4979003;28;19934;-77
2022/03/27 11:53:47;;;;;;;;;;;11.90;62.80;;;;;;4991240;28;20382;-77
2022/03/27 11:56:14;;;;;;;;;;;11.80;63.60;;;;;;4990230;28;19932;-77
2022/03/27 11:58:42;;;;;;;;;;;11.80;63.60;;;;;;4976123;28;19926;-77
2022/03/27 12:01:11;;;;;;;;;;;11.80;63.90;;;;;;4989334;28;19962;-78
2022/03/27 12:03:39;;;;;;;;;;;11.80;64.30;;;;;;4987926;28;19926;-78
2022/03/27 12:06:06;;;;;;;;;;;11.80;64.70;;;;;;4985889;28;20341;-77
2022/03/27 12:08:34;;;;;;;;;;;11.80;64.90;;;;;;4991837;28;19999;-77
2022/03/27 12:11:05;;;;;;;;;;;11.80;65.10;;;;;;4986894;28;19961;-77
2022/03/27 12:13:35;;;;;;;;;;;11.80;65.00;;;;;;4988500;28;19929;-77
2022/03/27 12:16:03;;;;;;;;;;;11.80;64.80;;;;;;4984373;28;19933;-77
2022/03/27 12:18:32;;;;;;;;;;;11.80;65.00;;;;;;4987844;28;20521;-77
2022/03/27 12:20:59;;;;;;;;;;;11.80;64.90;;;;;;4989592;28;19933;-76
2022/03/27 12:23:28;;;;;;;;;;;11.80;66.00;;;;;;4968826;28;19930;-77
2022/03/27 12:25:58;;;;;;;;;;;11.80;65.80;;;;;;4968820;28;19968;-77
2022/03/27 12:31:19;;;;;;;;;;;11.90;65.90;;;;;;4983611;28;19976;-78
2022/03/27 12:33:47;;;;;;;;;;;11.90;66.00;;;;;;4984086;28;19937;-77
2022/03/27 12:36:16;;;;;;;;;;;11.90;65.80;;;;;;4988093;28;20060;-77
2022/03/27 12:38:43;;;;;;;;;;;11.90;65.60;;;;;;4969450;28;20020;-76
2022/03/27 12:41:11;;;;;;;;;;;12.00;65.80;;;;;;4984169;28;19980;-77
2022/03/27 12:43:41;;;;;;;;;;;12.00;65.80;;;;;;4993193;28;19925;-77
2022/03/27 12:46:21;;;;;;;;;;;12.00;65.40;;;;;;4992809;28;20016;-77
2022/03/27 12:49:00;;;;;;;;;;;12.00;65.60;;;;;;4996145;28;19925;-77
2022/03/27 12:51:27;;;;;;;;;;;12.00;65.50;;;;;;4980460;28;19960;-77
2022/03/27 12:54:01;;;;;;;;;;;12.10;66.00;;;;;;4973181;28;19937;-76
2022/03/27 12:56:28;;;;;;;;;;;12.10;66.00;;;;;;4984853;28;20348;-77
2022/03/27 12:58:55;;;;;;;;;;;12.20;66.00;;;;;;4981094;28;19933;-77
2022/03/27 13:01:23;;;;;;;;;;;12.20;66.00;;;;;;4992677;28;19934;-77
2022/03/27 13:04:00;;;;;;;;;;;12.20;65.80;;;;;;4996983;28;19933;-76
2022/03/27 13:06:35;;;;;;;;;;;12.20;66.30;;;;;;5002750;28;20350;-77
2022/03/27 13:09:03;;;;;;;;;;;12.30;65.80;;;;;;4988432;28;20012;-77
2022/03/27 13:11:30;;;;;;;;;;;12.30;65.90;;;;;;4989059;28;20012;-76
2022/03/27 13:14:01;;;;;;;;;;;12.30;66.00;;;;;;4983714;28;20396;-76
2022/03/27 13:16:29;;;;;;;;;;;12.40;66.00;;;;;;4965605;28;20012;-78
2022/03/27 13:18:58;;;;;;;;;;;12.40;66.00;;;;;;4992145;28;19930;-77
2022/03/27 13:21:26;;;;;;;;;;;12.40;66.20;;;;;;4996141;28;20012;-77
2022/03/27 13:23:53;;;;;;;;;;;12.50;66.30;;;;;;4989399;28;20012;-76
2022/03/27 13:26:21;;;;;;;;;;;12.50;66.10;;;;;;4991556;28;19933;-77
2022/03/27 13:28:48;;;;;;;;;;;12.60;66.20;;;;;;4993556;28;20339;-77
2022/03/27 13:31:15;;;;;;;;;;;12.60;65.90;;;;;;4986905;28;19926;-77
2022/03/27 13:33:42;;;;;;;;;;;12.60;66.10;;;;;;4988491;28;19973;-77
2022/03/27 13:36:08;;;;;;;;;;;12.70;66.10;;;;;;4997024;28;19934;-77
2022/03/27 13:38:37;;;;;;;;;;;12.70;66.10;;;;;;4977810;28;20050;-77
2022/03/27 13:43:48;;;;;;;;;;;12.80;66.00;;;;;;4997439;28;19922;-77
2022/03/27 13:46:15;;;;;;;;;;;12.90;66.30;;;;;;4989913;28;19930;-76
2022/03/27 13:48:42;;;;;;;;;;;12.90;65.90;;;;;;4973317;28;20020;-78
2022/03/27 13:51:09;;;;;;;;;;;13.00;65.50;;;;;;4983175;28;20352;-77
2022/03/27 13:53:37;;;;;;;;;;;13.00;65.70;;;;;;4972843;28;19930;-76
2022/03/27 13:56:04;;;;;;;;;;;13.10;65.80;;;;;;4990246;28;19925;-77
2022/03/27 13:58:31;;;;;;;;;;;13.10;65.70;;;;;;4994116;28;20424;-78
2022/03/27 14:00:58;;;;;;;;;;;13.20;65.60;;;;;;4986732;28;19926;-77
2022/03/27 14:03:27;;;;;;;;;;;13.20;65.40;;;;;;4996642;28;19926;-77
2022/03/27 14:05:55;;;;;;;;;;;13.30;65.20;;;;;;4971476;28;20465;-77
2022/03/27 14:08:22;;;;;;;;;;;13.40;65.00;;;;;;4991349;28;19936;-77
2022/03/27 14:10:50;;;;;;;;;;;13.50;64.60;;;;;;4990340;28;19980;-78
2022/03/27 14:13:17;;;;;;;;;;;13.50;65.30;;;;;;4991468;28;19930;-77
2022/03/27 14:15:44;;;;;;;;;;;13.60;65.70;;;;;;4985971;28;20360;-77
2022/03/27 14:18:11;;;;;;;;;;;13.60;65.90;;;;;;4987071;28;20004;-77
2022/03/27 14:20:39;;;;;;;;;;;13.70;65.90;;;;;;4992886;28;20326;-77
2022/03/27 14:23:06;;;;;;;;;;;13.70;66.10;;;;;;4988643;28;19925;-77
2022/03/27 14:25:33;;;;;;;;;;;13.70;66.10;;;;;;4973489;28;20336;-76
2022/03/27 14:28:01;;;;;;;;;;;13.80;65.50;;;;;;4992727;28;19926;-77
2022/03/27 14:30:28;;;;;;;;;;;13.80;65.70;;;;;;4975965;28;20023;-77
2022/03/27 14:32:55;;;;;;;;;;;14.00;65.70;;;;;;4993485;28;19930;-77
2022/03/27 14:35:22;;;;;;;;;;;14.00;66.10;;;;;;4977648;28;20025;-78
2022/03/27 14:37:49;;;;;;;;;;;14.00;66.30;;;;;;4986810;28;19932;-77
2022/03/27 14:40:16;;;;;;;;;;;14.00;65.60;;;;;;4989761;28;19992;-78